Time;durP1;ratioP1;P1;durP2;ratioP2;P2;SDS_P1;SDS_P2;PMS_P1;PMS_P2;Temp;Humidity;BMP_temperature;BMP_pressure;BME280_temperature;BME280_humidity;BME280_pressure;Samples;Min_cycle;Max_cycle;Signal;HPM_P1;HPM_P2
2023/08/10 00:00:54;;;;;;;0.77;0.77;;;14.40;99.90;;;;;;5035474;28;20181;-79
2023/08/10 00:03:20;;;;;;;0.80;0.80;;;14.40;99.90;;;;;;5036321;28;20164;-79
2023/08/10 00:05:46;;;;;;;0.70;0.70;;;14.40;99.90;;;;;;5035184;28;20244;-79
2023/08/10 00:08:12;;;;;;;1.03;0.93;;;14.30;99.90;;;;;;5017451;28;20189;-77
2023/08/10 00:10:44;;;;;;;0.70;0.70;;;14.30;99.90;;;;;;5035822;28;20177;-78
2023/08/10 00:13:13;;;;;;;0.70;0.70;;;14.40;99.90;;;;;;5036834;28;20199;-79
2023/08/10 00:18:10;;;;;;;0.70;0.70;;;14.10;99.90;;;;;;5093072;28;20791;-78
2023/08/10 00:20:56;;;;;;;0.80;0.80;;;13.20;99.90;;;;;;5090467;22;20231;-78
2023/08/10 00:23:22;;;;;;;0.70;0.70;;;14.00;99.90;;;;;;5104136;23;20239;-78
2023/08/10 00:25:48;;;;;;;0.70;0.70;;;14.00;99.90;;;;;;5059340;28;20187;-76
2023/08/10 00:28:15;;;;;;;0.80;0.80;;;13.90;99.90;;;;;;5077724;28;20207;-80
2023/08/10 00:30:47;;;;;;;2.40;0.97;;;14.00;99.90;;;;;;5076946;28;20168;-77
2023/08/10 00:33:13;;;;;;;0.63;0.63;;;14.00;99.90;;;;;;5060479;28;20243;-78
2023/08/10 00:35:43;;;;;;;1.80;0.60;;;14.00;99.90;;;;;;5077107;28;20164;-79
2023/08/10 00:38:10;;;;;;;1.03;0.60;;;13.90;99.90;;;;;;5110079;23;20287;-76
2023/08/10 00:40:36;;;;;;;0.70;0.70;;;14.00;99.90;;;;;;5103096;22;20220;-76
2023/08/10 00:43:07;;;;;;;0.83;0.83;;;13.90;99.90;;;;;;5078811;28;20179;-76
2023/08/10 00:45:38;;;;;;;1.20;0.93;;;14.00;99.90;;;;;;5077524;28;20152;-80
2023/08/10 00:48:04;;;;;;;0.67;0.67;;;13.90;99.90;;;;;;5070955;28;20187;-78
2023/08/10 00:50:31;;;;;;;0.70;0.70;;;13.90;99.90;;;;;;5060220;28;20172;-79
2023/08/10 00:52:57;;;;;;;0.70;0.70;;;13.90;99.90;;;;;;5059461;28;20187;-79
2023/08/10 00:55:23;;;;;;;0.70;0.70;;;14.00;99.90;;;;;;5057952;28;20591;-78
2023/08/10 00:57:50;;;;;;;1.00;0.93;;;14.10;99.90;;;;;;5057263;28;20239;-77
2023/08/10 01:00:20;;;;;;;0.60;0.60;;;14.10;99.90;;;;;;5068407;28;20294;-78
2023/08/10 01:02:50;;;;;;;0.60;0.60;;;14.10;99.90;;;;;;5057755;28;20191;-78
2023/08/10 01:05:16;;;;;;;0.67;0.67;;;14.00;99.90;;;;;;5051718;28;20240;-76
2023/08/10 01:08:21;;;;;;;0.60;0.60;;;13.90;99.90;;;;;;5048629;28;20176;-79
2023/08/10 01:10:51;;;;;;;0.67;0.67;;;13.90;99.90;;;;;;5005926;28;20170;-78
2023/08/10 01:13:25;;;;;;;1.23;0.80;;;14.00;99.90;;;;;;5005710;28;20221;-76
2023/08/10 01:16:03;;;;;;;0.60;0.60;;;14.00;99.90;;;;;;5007355;28;20221;-77
2023/08/10 01:18:28;;;;;;;0.87;0.87;;;13.90;99.90;;;;;;5008872;28;20629;-78
2023/08/10 01:20:56;;;;;;;0.70;0.70;;;13.80;99.90;;;;;;5009702;28;20205;-77
2023/08/10 01:23:46;;;;;;;0.83;0.83;;;13.70;99.90;;;;;;5009716;28;20170;-76
2023/08/10 01:26:12;;;;;;;0.63;0.63;;;13.70;99.90;;;;;;5049635;23;20671;-76
2023/08/10 01:31:05;;;;;;;0.60;0.60;;;13.80;99.90;;;;;;5072697;23;20235;-76
2023/08/10 01:33:31;;;;;;;0.70;0.70;;;13.70;99.90;;;;;;5056385;28;20188;-77
2023/08/10 01:36:19;;;;;;;0.60;0.60;;;13.60;99.90;;;;;;5077972;28;20677;-78
2023/08/10 01:38:47;;;;;;;1.60;0.70;;;13.70;99.90;;;;;;5068872;28;20258;-79
2023/08/10 01:41:13;;;;;;;0.73;0.70;;;13.70;99.90;;;;;;5071133;28;20167;-78
2023/08/10 01:43:39;;;;;;;0.60;0.60;;;13.80;99.90;;;;;;5053425;28;20176;-79
2023/08/10 01:46:45;;;;;;;0.80;0.80;;;13.80;99.90;;;;;;5072211;28;20191;-77
2023/08/10 01:49:13;;;;;;;0.80;0.80;;;13.80;99.90;;;;;;5033674;28;20181;-77
2023/08/10 01:51:44;;;;;;;0.67;0.67;;;13.80;99.90;;;;;;5033915;28;20274;-78
2023/08/10 01:54:11;;;;;;;1.03;0.87;;;13.90;99.90;;;;;;5032968;28;20216;-77
2023/08/10 01:56:37;;;;;;;1.87;0.67;;;14.00;99.90;;;;;;5031731;28;20216;-77
2023/08/10 01:59:04;;;;;;;0.90;0.90;;;14.00;99.90;;;;;;5017747;28;20204;-78
2023/08/10 02:01:53;;;;;;;1.27;0.77;;;14.00;99.90;;;;;;5034214;28;20188;-80
2023/08/10 02:04:19;;;;;;;1.10;1.10;;;13.90;99.90;;;;;;5014786;28;20197;-80
2023/08/10 02:06:45;;;;;;;0.87;0.87;;;13.90;99.90;;;;;;5019491;28;20188;-77
2023/08/10 02:09:12;;;;;;;1.90;0.80;;;13.90;99.90;;;;;;5016205;28;20191;-78
2023/08/10 02:11:42;;;;;;;1.30;1.10;;;13.90;99.90;;;;;;5017202;28;20258;-77
2023/08/10 02:14:07;;;;;;;1.13;1.03;;;13.90;99.90;;;;;;5017081;28;20183;-76
2023/08/10 02:16:33;;;;;;;0.87;0.87;;;14.00;99.90;;;;;;5006392;28;20274;-77
2023/08/10 02:18:59;;;;;;;1.00;1.00;;;14.00;99.90;;;;;;5029993;28;20173;-76
2023/08/10 02:21:26;;;;;;;2.23;0.90;;;14.00;99.90;;;;;;5026722;28;20173;-78
2023/08/10 02:24:04;;;;;;;1.90;1.20;;;14.00;99.90;;;;;;5023457;28;20178;-79
2023/08/10 02:26:30;;;;;;;1.13;1.00;;;14.00;99.90;;;;;;5006171;28;20188;-77
2023/08/10 02:28:57;;;;;;;1.00;0.90;;;13.90;99.90;;;;;;5020477;28;20169;-76
2023/08/10 02:31:34;;;;;;;1.10;0.90;;;14.00;99.90;;;;;;5012401;28;20191;-78
2023/08/10 02:34:03;;;;;;;1.00;1.00;;;13.90;99.90;;;;;;5021528;28;20204;-79
2023/08/10 02:36:39;;;;;;;1.00;1.00;;;13.80;99.90;;;;;;5021584;28;20763;-78
2023/08/10 02:39:06;;;;;;;1.07;0.90;;;13.80;99.90;;;;;;5023739;28;20171;-79
2023/08/10 02:41:32;;;;;;;1.10;1.00;;;13.80;99.90;;;;;;5033758;28;20181;-77
2023/08/10 02:43:58;;;;;;;1.20;1.10;;;13.80;99.90;;;;;;5022891;28;20253;-78
2023/08/10 02:46:24;;;;;;;1.07;1.07;;;13.80;99.90;;;;;;5056057;28;20184;-78
2023/08/10 02:48:50;;;;;;;1.30;1.30;;;13.70;99.90;;;;;;5045813;28;20194;-77
2023/08/10 02:51:21;;;;;;;1.00;1.00;;;13.70;99.90;;;;;;5066028;28;20658;-78
2023/08/10 02:53:50;;;;;;;1.27;1.17;;;13.80;99.90;;;;;;5031922;28;20184;-76
2023/08/10 02:56:16;;;;;;;1.40;1.40;;;13.80;99.90;;;;;;5065183;28;20200;-75
2023/08/10 02:58:42;;;;;;;1.20;1.20;;;13.80;99.90;;;;;;5063223;28;20178;-77
2023/08/10 03:01:21;;;;;;;1.70;1.60;;;13.80;99.90;;;;;;5063270;28;20187;-80
2023/08/10 03:03:46;;;;;;;1.30;1.30;;;13.80;99.90;;;;;;5050493;23;20183;-79
2023/08/10 03:06:12;;;;;;;2.37;1.43;;;13.80;99.90;;;;;;5062343;28;20233;-75
2023/08/10 03:08:43;;;;;;;1.57;1.47;;;13.80;99.90;;;;;;5046383;28;20186;-77
2023/08/10 03:11:09;;;;;;;1.40;1.40;;;13.90;99.90;;;;;;5068579;28;20172;-78
2023/08/10 03:13:44;;;;;;;1.80;1.70;;;13.90;99.90;;;;;;5061085;28;20230;-79
2023/08/10 03:16:10;;;;;;;1.70;1.60;;;13.80;99.90;;;;;;5057060;28;20223;-78
2023/08/10 03:18:36;;;;;;;1.57;1.57;;;13.80;99.90;;;;;;5061403;28;20178;-79
2023/08/10 03:21:03;;;;;;;1.40;1.40;;;13.80;99.90;;;;;;5060323;28;20238;-78
2023/08/10 03:23:29;;;;;;;1.60;1.50;;;13.80;99.90;;;;;;5066062;28;20176;-78
2023/08/10 03:25:54;;;;;;;1.57;1.57;;;13.80;99.90;;;;;;5062607;28;20249;-78
2023/08/10 03:28:20;;;;;;;1.70;1.60;;;13.80;99.90;;;;;;5068574;23;20227;-78
2023/08/10 03:30:48;;;;;;;1.63;1.53;;;13.80;99.90;;;;;;5065060;28;20183;-77
2023/08/10 03:33:41;;;;;;;2.03;1.83;;;13.80;99.90;;;;;;5075256;28;20164;-77
2023/08/10 03:36:07;;;;;;;1.50;1.50;;;13.80;99.90;;;;;;5064618;28;20693;-75
2023/08/10 03:38:35;;;;;;;1.80;1.70;;;13.80;99.90;;;;;;5070602;28;20164;-76
2023/08/10 03:41:18;;;;;;;1.97;1.77;;;13.80;99.90;;;;;;5073976;28;20156;-77
2023/08/10 03:44:05;;;;;;;1.77;1.67;;;13.80;99.90;;;;;;5076846;28;20192;-78
2023/08/10 03:46:33;;;;;;;1.70;1.60;;;13.90;99.90;;;;;;5049372;28;20183;-78
2023/08/10 03:48:59;;;;;;;1.80;1.70;;;13.90;99.90;;;;;;5061440;28;20176;-75
2023/08/10 03:51:32;;;;;;;2.47;1.87;;;13.80;99.90;;;;;;5060392;28;20291;-77
2023/08/10 03:53:59;;;;;;;1.83;1.73;;;13.80;99.90;;;;;;5050400;28;20213;-76
2023/08/10 03:56:39;;;;;;;1.50;1.50;;;13.80;99.90;;;;;;5075178;28;20215;-76
2023/08/10 03:59:05;;;;;;;1.80;1.70;;;13.90;99.90;;;;;;5089096;23;20328;-78
2023/08/10 04:01:32;;;;;;;1.30;1.30;;;13.90;99.90;;;;;;5080877;28;20322;-77
2023/08/10 04:03:58;;;;;;;1.60;1.50;;;14.20;99.90;;;;;;5097014;28;20174;-76
2023/08/10 04:06:32;;;;;;;2.07;1.97;;;13.90;99.90;;;;;;5112341;28;20210;-76
2023/08/10 04:09:04;;;;;;;2.17;1.97;;;14.00;99.90;;;;;;5098368;28;20182;-77
2023/08/10 04:11:30;;;;;;;1.90;1.80;;;13.90;99.90;;;;;;5098631;28;20179;-80
2023/08/10 04:13:57;;;;;;;2.87;1.57;;;13.90;99.90;;;;;;5114758;28;20178;-78
2023/08/10 04:16:26;;;;;;;1.73;1.70;;;13.90;99.90;;;;;;5098081;28;20215;-78
2023/08/10 04:18:58;;;;;;;1.93;1.83;;;14.00;99.90;;;;;;5115058;28;20266;-77
2023/08/10 04:21:35;;;;;;;1.50;1.50;;;14.00;99.90;;;;;;5088172;23;20232;-78
2023/08/10 04:24:17;;;;;;;2.13;2.03;;;14.10;99.90;;;;;;5103734;22;20332;-79
2023/08/10 04:31:48;;;;;;;2.10;1.90;;;14.20;99.90;;;;;;4195835;26;20246;-78
2023/08/10 04:34:15;;;;;;;2.00;1.90;;;15.80;99.90;;;;;;5083159;28;20174;-78
2023/08/10 04:36:42;;;;;;;1.63;1.60;;;15.00;99.90;;;;;;5063896;28;20275;-78
2023/08/10 04:39:11;;;;;;;2.17;1.93;;;14.60;99.90;;;;;;5077271;23;20235;-78
2023/08/10 04:44:07;;;;;;;1.90;1.80;;;14.10;99.90;;;;;;5075878;28;20239;-79
2023/08/10 04:49:08;;;;;;;4.27;2.00;;;14.10;99.90;;;;;;5085125;22;20227;-77
2023/08/10 04:53:59;;;;;;;3.07;2.00;;;14.30;99.90;;;;;;5097341;22;20231;-76
2023/08/10 04:56:25;;;;;;;2.00;1.90;;;14.40;99.90;;;;;;5093230;28;20205;-77
2023/08/10 04:58:51;;;;;;;2.00;1.90;;;14.30;99.90;;;;;;5091738;28;20183;-79
2023/08/10 05:01:17;;;;;;;2.03;1.93;;;14.40;99.90;;;;;;5103920;28;20188;-78
2023/08/10 05:03:45;;;;;;;1.90;1.80;;;14.50;99.90;;;;;;5107935;28;20197;-78
2023/08/10 05:06:11;;;;;;;2.67;1.90;;;14.40;99.90;;;;;;5087833;23;20266;-75
2023/08/10 05:08:38;;;;;;;3.50;2.00;;;14.50;99.90;;;;;;5065945;28;20184;-75
2023/08/10 05:11:07;;;;;;;1.97;1.87;;;14.50;99.90;;;;;;5068914;28;20182;-77
2023/08/10 05:13:57;;;;;;;2.53;2.00;;;14.60;99.90;;;;;;5058489;28;20167;-79
2023/08/10 05:16:24;;;;;;;2.13;2.03;;;14.90;99.90;;;;;;5072362;28;20238;-77
2023/08/10 05:18:51;;;;;;;3.63;2.10;;;14.80;99.90;;;;;;5053617;28;20209;-76
2023/08/10 05:21:49;;;;;;;7.63;2.20;;;14.70;99.90;;;;;;5053848;28;20191;-78
2023/08/10 05:24:27;;;;;;;2.40;2.30;;;14.90;99.90;;;;;;5070069;28;20152;-75
2023/08/10 05:26:53;;;;;;;2.37;2.27;;;14.80;99.90;;;;;;5074725;28;20183;-84
2023/08/10 05:29:20;;;;;;;2.20;2.10;;;14.80;99.90;;;;;;5070463;28;20626;-76
2023/08/10 05:31:46;;;;;;;2.93;2.30;;;14.90;99.90;;;;;;5044690;28;20179;-78
2023/08/10 05:34:12;;;;;;;1.90;1.80;;;14.90;99.90;;;;;;5061729;28;20229;-77
2023/08/10 05:36:39;;;;;;;2.03;1.90;;;15.00;99.90;;;;;;5057247;28;20203;-76
2023/08/10 05:39:08;;;;;;;1.73;1.73;;;14.90;99.90;;;;;;5067386;28;20174;-81
2023/08/10 05:41:34;;;;;;;2.53;2.10;;;14.90;99.90;;;;;;5061996;28;20170;-79
2023/08/10 05:44:01;;;;;;;3.73;2.23;;;14.90;99.90;;;;;;5060069;28;20175;-84
2023/08/10 05:46:31;;;;;;;2.13;2.03;;;15.00;99.90;;;;;;5064472;28;20247;-81
2023/08/10 05:48:58;;;;;;;2.20;2.10;;;15.00;99.90;;;;;;5067169;28;20705;-77
2023/08/10 05:51:24;;;;;;;2.23;2.13;;;15.10;99.90;;;;;;5050197;28;20316;-77
2023/08/10 05:53:51;;;;;;;2.50;1.97;;;15.10;99.90;;;;;;5050519;28;20191;-77
2023/08/10 05:56:19;;;;;;;2.20;2.10;;;15.10;99.90;;;;;;5066460;28;20250;-83
2023/08/10 05:58:45;;;;;;;2.00;1.90;;;15.10;99.90;;;;;;5051133;28;20179;-79
2023/08/10 06:01:15;;;;;;;1.83;1.73;;;15.30;99.90;;;;;;5072287;28;20604;-79
2023/08/10 06:03:46;;;;;;;2.20;2.00;;;15.30;99.90;;;;;;5052535;28;20163;-77
2023/08/10 06:06:12;;;;;;;2.00;1.90;;;15.30;99.90;;;;;;5072597;28;20607;-86
2023/08/10 06:08:38;;;;;;;1.87;1.83;;;15.30;99.90;;;;;;5058879;28;20164;-82
2023/08/10 06:11:05;;;;;;;2.03;1.93;;;15.60;99.90;;;;;;5044266;28;20244;-82
2023/08/10 06:13:37;;;;;;;2.03;1.90;;;15.50;99.90;;;;;;5069707;28;20232;-79
2023/08/10 06:16:03;;;;;;;1.80;1.70;;;15.60;99.90;;;;;;5066460;28;20271;-87
2023/08/10 06:18:30;;;;;;;2.07;1.80;;;15.70;99.90;;;;;;5046316;28;20179;-83
2023/08/10 06:20:56;;;;;;;2.10;2.00;;;16.00;99.90;;;;;;5065711;28;20183;-80
2023/08/10 06:23:22;;;;;;;2.10;2.00;;;16.10;99.90;;;;;;5066669;28;20192;-81
2023/08/10 06:25:48;;;;;;;2.03;1.93;;;16.10;99.90;;;;;;5062251;28;20177;-86
2023/08/10 06:28:14;;;;;;;1.53;1.53;;;16.30;99.90;;;;;;5063754;28;20175;-78
2023/08/10 06:30:41;;;;;;;1.60;1.60;;;16.30;99.90;;;;;;5067678;28;20203;-85
2023/08/10 06:33:11;;;;;;;1.80;1.70;;;16.30;99.90;;;;;;5050377;28;20180;-83
2023/08/10 06:35:39;;;;;;;1.90;1.80;;;16.40;99.90;;;;;;5063682;28;20172;-80
2023/08/10 06:38:04;;;;;;;1.70;1.60;;;16.40;99.90;;;;;;5060714;28;20203;-80
2023/08/10 06:40:32;;;;;;;1.80;1.70;;;16.40;99.90;;;;;;5061809;28;20172;-86
2023/08/10 06:42:58;;;;;;;2.20;1.93;;;16.30;99.90;;;;;;5061779;28;20178;-81
2023/08/10 06:45:24;;;;;;;1.97;1.87;;;16.30;99.90;;;;;;5060673;28;20194;-80
2023/08/10 06:47:50;;;;;;;2.00;1.80;;;14.50;99.90;;;;;;5062938;28;20168;-87
2023/08/10 06:50:18;;;;;;;2.07;1.87;;;16.20;99.90;;;;;;5045339;28;20591;-86
2023/08/10 06:52:45;;;;;;;1.93;1.83;;;16.40;99.90;;;;;;5059737;28;20204;-88
2023/08/10 06:55:14;;;;;;;3.70;2.03;;;16.20;99.90;;;;;;5058718;28;20194;-86
2023/08/10 06:57:39;;;;;;;1.90;1.80;;;16.40;99.90;;;;;;5074822;28;20203;-77
2023/08/10 07:00:07;;;;;;;2.00;1.90;;;16.30;99.90;;;;;;5063270;28;20255;-76
2023/08/10 07:02:35;;;;;;;3.07;1.67;;;16.50;99.90;;;;;;5057475;28;20204;-81
2023/08/10 07:05:02;;;;;;;2.13;2.03;;;16.50;99.90;;;;;;5060875;28;20547;-80
2023/08/10 07:07:29;;;;;;;1.93;1.83;;;16.60;99.90;;;;;;5061376;28;20172;-78
2023/08/10 07:09:55;;;;;;;1.77;1.70;;;16.70;99.90;;;;;;5067132;28;20694;-78
2023/08/10 07:12:20;;;;;;;1.80;1.70;;;16.70;99.90;;;;;;5075583;28;20174;-82
2023/08/10 07:14:46;;;;;;;1.70;1.60;;;16.70;99.90;;;;;;5074157;28;20202;-80
2023/08/10 07:17:12;;;;;;;2.10;1.87;;;16.80;99.90;;;;;;5064014;28;20226;-87
2023/08/10 07:19:38;;;;;;;2.13;1.87;;;16.90;99.90;;;;;;5061544;28;20653;-83
2023/08/10 07:22:04;;;;;;;2.30;2.20;;;17.10;99.90;;;;;;5062731;28;20662;-84
2023/08/10 07:24:29;;;;;;;1.80;1.67;;;17.30;99.90;;;;;;5043077;28;20271;-80
2023/08/10 07:26:56;;;;;;;1.60;1.50;;;17.30;99.90;;;;;;5061659;28;20182;-84
2023/08/10 07:29:24;;;;;;;1.70;1.60;;;17.40;99.90;;;;;;5045164;28;20176;-81
2023/08/10 07:31:50;;;;;;;1.77;1.67;;;17.40;99.90;;;;;;5070666;28;20186;-84
2023/08/10 07:34:17;;;;;;;1.80;1.70;;;17.50;99.90;;;;;;5069116;28;20182;-88
2023/08/10 07:36:43;;;;;;;1.57;1.57;;;17.60;99.90;;;;;;5062467;28;20263;-82
2023/08/10 07:39:09;;;;;;;1.50;1.40;;;17.70;99.90;;;;;;5061619;28;20204;-86
2023/08/10 07:41:35;;;;;;;1.63;1.53;;;17.80;99.90;;;;;;5061349;28;20172;-83
2023/08/10 07:44:02;;;;;;;1.53;1.50;;;17.80;99.90;;;;;;5063294;28;20175;-80
2023/08/10 07:46:27;;;;;;;1.70;1.17;;;17.90;99.90;;;;;;5073679;28;20179;-78
2023/08/10 07:48:53;;;;;;;1.30;1.30;;;18.10;99.90;;;;;;5073189;28;20183;-77
2023/08/10 07:51:19;;;;;;;1.30;1.30;;;18.20;99.90;;;;;;5067843;28;20195;-84
2023/08/10 07:53:45;;;;;;;1.27;1.27;;;18.20;99.90;;;;;;5062250;28;20186;-86
2023/08/10 07:56:12;;;;;;;1.67;1.67;;;18.20;99.90;;;;;;5061805;28;20279;-80
2023/08/10 07:58:38;;;;;;;1.30;1.30;;;18.40;99.90;;;;;;5061269;28;20206;-88
2023/08/10 08:01:07;;;;;;;2.10;1.30;;;18.50;99.90;;;;;;5061629;28;20175;-78
2023/08/10 08:03:34;;;;;;;1.00;1.00;;;18.50;99.90;;;;;;5061072;28;20258;-84
2023/08/10 08:06:01;;;;;;;1.30;1.30;;;18.70;99.90;;;;;;5062138;28;20306;-83
2023/08/10 08:08:28;;;;;;;1.23;1.23;;;18.60;99.90;;;;;;5061553;28;20713;-82
2023/08/10 08:10:55;;;;;;;1.30;1.20;;;18.60;99.90;;;;;;5061335;28;20526;-86
2023/08/10 08:13:21;;;;;;;1.20;1.20;;;18.70;99.90;;;;;;5060065;28;20214;-82
2023/08/10 08:15:47;;;;;;;1.80;1.30;;;18.90;99.90;;;;;;5060065;28;20176;-84
2023/08/10 08:18:42;;;;;;;1.40;1.40;;;18.90;99.90;;;;;;5060308;28;20183;-83
2023/08/10 08:21:12;;;;;;;1.43;1.43;;;18.90;99.90;;;;;;5059418;28;20174;-82
2023/08/10 08:23:38;;;;;;;1.30;1.30;;;19.10;99.90;;;;;;5058976;28;20168;-78
2023/08/10 08:26:04;;;;;;;1.37;1.37;;;19.30;99.90;;;;;;5060314;28;20203;-81
2023/08/10 08:28:30;;;;;;;1.60;1.50;;;19.50;99.90;;;;;;5059651;28;20179;-79
2023/08/10 08:30:56;;;;;;;1.50;1.50;;;19.70;99.90;;;;;;5060853;28;20194;-79
2023/08/10 08:33:21;;;;;;;1.57;1.47;;;19.90;99.90;;;;;;5055189;28;20160;-78
2023/08/10 08:35:47;;;;;;;1.20;1.20;;;20.10;99.90;;;;;;5042035;28;20182;-80
2023/08/10 08:38:14;;;;;;;1.30;1.30;;;20.00;99.90;;;;;;5057354;28;20179;-81
2023/08/10 08:40:41;;;;;;;1.53;1.43;;;20.00;99.90;;;;;;5038929;28;20176;-78
2023/08/10 08:43:09;;;;;;;1.57;1.50;;;20.00;99.90;;;;;;5061121;28;20678;-79
2023/08/10 08:45:35;;;;;;;1.50;1.50;;;20.00;99.90;;;;;;5075971;28;20263;-87
2023/08/10 08:48:03;;;;;;;1.67;1.40;;;20.00;99.90;;;;;;5065203;28;20172;-84
2023/08/10 08:50:29;;;;;;;1.50;1.40;;;20.10;99.90;;;;;;5061300;28;20171;-78
2023/08/10 08:52:55;;;;;;;1.20;1.20;;;20.30;99.90;;;;;;5061264;28;20191;-77
2023/08/10 08:55:21;;;;;;;1.43;1.40;;;20.40;99.90;;;;;;5059144;28;20695;-79
2023/08/10 08:57:49;;;;;;;1.30;1.30;;;20.40;99.90;;;;;;5059833;28;20242;-77
2023/08/10 09:00:15;;;;;;;1.30;1.27;;;20.40;99.90;;;;;;5061650;28;20646;-83
2023/08/10 09:02:41;;;;;;;1.27;1.27;;;20.20;99.90;;;;;;5073298;28;20595;-77
2023/08/10 09:05:08;;;;;;;1.27;1.27;;;20.00;99.90;;;;;;5064077;28;20671;-77
2023/08/10 09:07:34;;;;;;;1.30;1.30;;;19.90;99.90;;;;;;5058186;28;20191;-83
2023/08/10 09:10:02;;;;;;;1.23;1.23;;;19.80;99.90;;;;;;5039875;28;20322;-86
2023/08/10 09:12:29;;;;;;;1.40;1.40;;;20.00;99.90;;;;;;5060828;28;20172;-77
2023/08/10 09:15:10;;;;;;;1.30;1.30;;;20.30;99.90;;;;;;5040979;28;20191;-79
2023/08/10 09:17:38;;;;;;;1.60;1.43;;;20.60;99.90;;;;;;5040601;28;20587;-81
2023/08/10 09:20:08;;;;;;;2.90;1.73;;;20.80;99.90;;;;;;5059509;28;20194;-84
2023/08/10 09:22:39;;;;;;;1.30;1.30;;;20.40;99.90;;;;;;5041382;28;20639;-82
2023/08/10 09:25:09;;;;;;;2.17;1.70;;;20.60;99.90;;;;;;5062583;28;20227;-80
2023/08/10 09:27:35;;;;;;;1.77;1.67;;;20.50;99.90;;;;;;5047945;28;20258;-80
2023/08/10 09:30:05;;;;;;;1.60;1.50;;;20.60;99.90;;;;;;5062533;28;20237;-82
2023/08/10 09:32:32;;;;;;;1.80;1.70;;;20.60;99.90;;;;;;5057517;28;20175;-82
2023/08/10 09:34:58;;;;;;;2.10;2.00;;;20.80;99.90;;;;;;5063108;28;20176;-77
2023/08/10 09:37:25;;;;;;;2.00;1.90;;;20.70;99.90;;;;;;5060686;28;20200;-82
2023/08/10 09:39:55;;;;;;;2.10;2.00;;;20.70;99.90;;;;;;5056355;28;20205;-80
2023/08/10 09:42:21;;;;;;;2.10;2.00;;;20.40;99.90;;;;;;5056655;28;20164;-82
2023/08/10 09:44:49;;;;;;;2.07;1.90;;;20.30;99.90;;;;;;5056671;28;20591;-86
2023/08/10 09:47:16;;;;;;;1.90;1.80;;;20.20;99.90;;;;;;5038827;28;20536;-86
2023/08/10 09:50:02;;;;;;;1.60;1.50;;;20.40;99.90;;;;;;5056825;28;20168;-83
2023/08/10 09:52:28;;;;;;;1.60;1.50;;;20.60;99.90;;;;;;5057109;28;20160;-86
2023/08/10 09:54:56;;;;;;;2.10;2.00;;;20.60;99.90;;;;;;5067133;28;20152;-86
2023/08/10 09:57:23;;;;;;;2.60;2.50;;;20.80;99.90;;;;;;5047182;28;20214;-83
2023/08/10 09:59:51;;;;;;;2.00;1.80;;;21.00;99.90;;;;;;5056834;28;20235;-82
2023/08/10 10:02:20;;;;;;;1.87;1.70;;;21.00;99.90;;;;;;5055367;28;20240;-83
2023/08/10 10:04:46;;;;;;;1.43;1.43;;;21.10;99.90;;;;;;5037667;28;20183;-79
2023/08/10 10:07:13;;;;;;;1.93;1.83;;;21.20;99.90;;;;;;5055494;28;20258;-84
2023/08/10 10:09:43;;;;;;;1.70;1.60;;;21.30;99.90;;;;;;5060592;28;20199;-78
2023/08/10 10:12:13;;;;;;;1.63;1.60;;;21.30;99.90;;;;;;5059319;28;20619;-82
2023/08/10 10:14:41;;;;;;;1.77;1.70;;;21.20;99.90;;;;;;5055651;28;20181;-80
2023/08/10 10:17:11;;;;;;;1.73;1.60;;;21.30;99.90;;;;;;5055317;28;20207;-79
2023/08/10 10:19:40;;;;;;;1.47;1.43;;;21.10;99.90;;;;;;5045048;28;20180;-78
2023/08/10 10:22:06;;;;;;;1.17;1.17;;;21.00;99.90;;;;;;5069199;28;20175;-78
2023/08/10 10:24:34;;;;;;;1.60;1.60;;;20.90;99.90;;;;;;5056994;28;20206;-81
2023/08/10 10:27:08;;;;;;;2.73;1.40;;;20.90;99.90;;;;;;5055815;28;20188;-80
2023/08/10 10:29:51;;;;;;;1.63;1.50;;;20.80;99.90;;;;;;5055901;28;20166;-85
2023/08/10 10:32:22;;;;;;;1.80;1.70;;;20.80;99.90;;;;;;5056410;28;20639;-81
2023/08/10 10:34:52;;;;;;;1.53;1.43;;;20.60;99.90;;;;;;5056313;28;20160;-83
2023/08/10 10:37:26;;;;;;;1.80;1.70;;;20.40;99.90;;;;;;5061248;28;20203;-81
2023/08/10 10:39:52;;;;;;;1.60;1.50;;;20.30;99.90;;;;;;5041625;28;20658;-83
2023/08/10 10:42:19;;;;;;;2.80;2.40;;;20.40;99.90;;;;;;5055893;28;20176;-85
2023/08/10 10:45:14;;;;;;;2.20;2.10;;;20.70;99.90;;;;;;5039038;28;20176;-84
2023/08/10 10:47:48;;;;;;;2.23;1.40;;;21.00;99.90;;;;;;5055850;28;20199;-86
2023/08/10 10:50:18;;;;;;;1.77;1.50;;;21.10;99.90;;;;;;5057015;28;20164;-83
2023/08/10 10:52:59;;;;;;;1.27;1.27;;;21.10;99.90;;;;;;5039467;28;20180;-84
2023/08/10 10:55:36;;;;;;;1.73;1.63;;;21.20;99.90;;;;;;5038775;28;20172;-82
2023/08/10 10:58:05;;;;;;;1.50;1.50;;;21.00;99.90;;;;;;5056675;28;20210;-84
2023/08/10 11:00:33;;;;;;;1.40;1.40;;;21.10;99.90;;;;;;5066145;28;20309;-82
2023/08/10 11:03:00;;;;;;;1.30;1.30;;;21.20;99.90;;;;;;5074831;28;20231;-83
2023/08/10 11:05:27;;;;;;;1.63;1.53;;;21.20;99.90;;;;;;5059993;28;20224;-83
2023/08/10 11:07:53;;;;;;;1.77;1.63;;;21.20;99.90;;;;;;5057918;28;20176;-83
2023/08/10 11:10:21;;;;;;;1.30;1.30;;;21.20;99.90;;;;;;5050950;28;20219;-78
2023/08/10 11:12:48;;;;;;;1.23;1.23;;;21.20;99.90;;;;;;5045601;28;20179;-81
2023/08/10 11:15:16;;;;;;;1.60;1.50;;;21.20;99.90;;;;;;5060394;28;20252;-81
2023/08/10 11:17:50;;;;;;;1.40;1.40;;;21.20;99.90;;;;;;5065307;28;20293;-83
2023/08/10 11:20:17;;;;;;;1.37;1.37;;;21.30;99.90;;;;;;5065297;28;20570;-80
2023/08/10 11:22:47;;;;;;;1.33;1.33;;;21.30;99.90;;;;;;5059840;28;20620;-79
2023/08/10 11:25:16;;;;;;;1.90;1.80;;;21.50;99.90;;;;;;5056461;28;20183;-82
2023/08/10 11:27:46;;;;;;;1.23;1.23;;;21.60;99.90;;;;;;5055648;28;20172;-79
2023/08/10 11:30:14;;;;;;;1.53;1.53;;;21.90;99.90;;;;;;5057693;28;20164;-82
2023/08/10 11:32:45;;;;;;;2.10;2.00;;;22.00;99.90;;;;;;5040704;28;20534;-84
2023/08/10 11:35:12;;;;;;;1.60;1.60;;;22.10;99.90;;;;;;5056235;28;20161;-83
2023/08/10 11:37:39;;;;;;;1.20;1.20;;;22.00;99.90;;;;;;5038999;28;20280;-84
2023/08/10 11:40:15;;;;;;;2.83;1.33;;;22.10;99.90;;;;;;5056407;28;20175;-82
2023/08/10 11:42:52;;;;;;;1.67;1.57;;;22.30;99.90;;;;;;5058215;28;20203;-82
2023/08/10 11:45:20;;;;;;;1.33;1.33;;;22.60;99.90;;;;;;5059939;28;20164;-80
2023/08/10 11:47:57;;;;;;;2.00;1.70;;;22.60;99.90;;;;;;5058163;28;20187;-80
2023/08/10 11:50:30;;;;;;;1.77;1.27;;;22.70;99.90;;;;;;5059327;28;20175;-83
2023/08/10 11:52:58;;;;;;;2.13;1.42;;;22.70;99.90;;;;;;5059305;28;20256;-80
2023/08/10 11:55:27;;;;;;;1.27;1.25;;;22.70;99.90;;;;;;5061536;28;20175;-79
2023/08/10 11:57:55;;;;;;;1.40;1.38;;;22.60;99.90;;;;;;5076534;28;20199;-78
2023/08/10 12:00:33;;;;;;;1.40;1.40;;;22.60;99.90;;;;;;5063012;28;20235;-78
2023/08/10 12:03:12;;;;;;;1.50;1.50;;;22.50;99.90;;;;;;5059344;28;20156;-84
2023/08/10 12:05:46;;;;;;;2.03;1.60;;;22.50;99.90;;;;;;5057770;28;20276;-84
2023/08/10 12:08:30;;;;;;;1.75;1.70;;;22.70;99.90;;;;;;5040392;28;20637;-83
2023/08/10 12:11:02;;;;;;;3.78;1.52;;;22.70;99.90;;;;;;5060117;28;20530;-84
2023/08/10 12:13:29;;;;;;;2.35;1.67;;;22.70;99.90;;;;;;5059357;28;20171;-85
2023/08/10 12:15:57;;;;;;;1.50;1.40;;;22.80;99.90;;;;;;5058955;28;20242;-85
2023/08/10 12:18:25;;;;;;;1.58;1.58;;;22.70;99.90;;;;;;5040617;28;20183;-86
2023/08/10 12:20:52;;;;;;;1.75;1.65;;;22.70;99.90;;;;;;5058355;28;20220;-83
2023/08/10 12:23:19;;;;;;;1.50;1.50;;;22.80;99.90;;;;;;5057498;28;20176;-84
2023/08/10 12:25:47;;;;;;;1.30;1.30;;;22.80;99.90;;;;;;5057788;28;20164;-81
2023/08/10 12:28:17;;;;;;;1.40;1.30;;;22.80;99.90;;;;;;5059307;28;20255;-79
2023/08/10 12:30:44;;;;;;;1.80;1.70;;;22.80;99.90;;;;;;5061333;28;20194;-80
2023/08/10 12:33:11;;;;;;;1.60;1.50;;;22.70;99.90;;;;;;5060778;28;20214;-77
2023/08/10 12:35:37;;;;;;;1.70;1.60;;;22.70;99.90;;;;;;5057930;28;20171;-82
2023/08/10 12:38:05;;;;;;;1.58;1.58;;;22.70;99.90;;;;;;5069019;28;20234;-81
2023/08/10 12:40:31;;;;;;;1.50;1.50;;;22.60;99.90;;;;;;5058251;28;20172;-82
2023/08/10 12:42:58;;;;;;;1.40;1.40;;;22.60;99.90;;;;;;5057222;28;20657;-80
2023/08/10 12:45:25;;;;;;;2.05;1.95;;;22.70;99.90;;;;;;5056706;28;20168;-78
2023/08/10 12:47:51;;;;;;;1.80;1.70;;;22.80;99.90;;;;;;5039121;28;20597;-80
2023/08/10 12:50:18;;;;;;;3.35;1.63;;;22.90;99.90;;;;;;5057582;28;20247;-85
2023/08/10 12:52:46;;;;;;;2.08;1.45;;;23.10;99.90;;;;;;5049066;28;20651;-79
2023/08/10 12:55:13;;;;;;;1.70;1.60;;;23.20;99.90;;;;;;5059950;28;20175;-82
2023/08/10 12:57:40;;;;;;;1.50;1.50;;;23.30;99.90;;;;;;5056727;28;20630;-82
2023/08/10 13:00:10;;;;;;;1.65;1.58;;;23.40;99.90;;;;;;5056302;28;20195;-84
2023/08/10 13:02:36;;;;;;;1.85;1.60;;;23.40;99.90;;;;;;5055893;28;20562;-78
2023/08/10 13:05:03;;;;;;;1.38;1.30;;;23.30;99.90;;;;;;5055620;28;20172;-79
2023/08/10 13:07:31;;;;;;;1.50;1.50;;;23.30;99.90;;;;;;5056462;28;20765;-82
2023/08/10 13:09:58;;;;;;;1.58;1.48;;;23.10;99.90;;;;;;5057336;28;20176;-83
2023/08/10 13:12:24;;;;;;;1.80;1.70;;;23.00;99.90;;;;;;5056129;28;20237;-81
2023/08/10 13:14:50;;;;;;;1.40;1.38;;;22.90;99.90;;;;;;5040582;28;20215;-79